Relevés horaires Matro (Suisse)


Relevés horaires à Matro - Vendredi 21 Janv. 2022
Heure UTC1 Température [°C] Vent [km/h] Hum. [%] Pres.4 [hPa] Visi. [Km] Nébu. [octa] Préc.5 [mm] Cond.
2m. Res. Ros. Dir.2 Vit. Moy. Raf.3
23:00 -5.0 -15 -12.8 NNO 50.0 -- 83.3 54 850(0.6/3h) -- -- -- --
22:00 -5.2 -15.8 -13.2 NNO 57.4 -- 87.0 53 850(0.7/3h) -- -- -- --
21:00 -6.0 -16.9 -12.9 NNO 57.4 -- 92.6 58 850(1.4/3h) -- -- -- --
20:00 -6.8 -18.4 -13.4 NNO 63.0 -- 90.7 59 850(1.2/3h) -- -- -- --
19:00 -7.5 -19.1 -14.8 NNO 59.3 -- 92.6 56 850(0.9/3h) -- -- -- --
18:00 -7.6 -19.9 -16.3 NNO 68.5 -- 94.5 50 850(0.4/3h) -- -- -- --
17:00 -7.9 -18.2 -16.9 NNO 42.6 -- 68.5 48 850(0.2/3h) -- -- -- --
16:00 -7.6 -18.7 -18.0 NNO 51.9 -- 81.5 43 850(0.3/3h) -- -- -- --
15:00 -7.4 -17.9 -19.8 NNO 46.3 -- 74.1 36 850(0.0/3h) -- -- -- --
14:00 -6.9 -17 -21.0 NNO 44.4 -- 74.1 31 850(-0.2/3h) -- -- -- --
13:00 -6.9 -16.3 -22.8 NNO 37.0 -- 64.8 27 850(-0.1/3h) -- -- -- --
12:00 -7.1 -16.1 -23.5 NO 33.3 -- 83.3 26 850(1.0/3h) -- -- -- --
11:00 -8.2 -16 -22.7 ONO 22.2 -- 40.7 30 850(1.5/3h) -- -- -- --
10:00 -9.4 -16.8 -21.4 NNO 18.5 -- 48.2 37 850(1.8/3h) -- -- -- --
09:00 -9.8 -19.5 -20.9 NO 31.5 -- 83.3 40 850(1.6/3h) -- -- -- --
08:00 -10.1 -20.6 -21.3 NNO 37.0 -- 72.2 39 850(1.5/3h) -- -- -- --
07:00 -10.1 -20.6 -20.6 NO 37.0 -- 83.3 42 850(0.9/3h) -- -- -- --
06:00 -10.5 -22.3 -19.8 NNO 48.2 -- 79.6 46 850(0.2/3h) -- -- -- --
05:00 -10.5 -22.8 -19.6 NNO 53.7 -- 77.8 47 850(-0.5/3h) -- -- -- --
04:00 -10.6 -22.8 -18.2 NNO 51.9 -- 74.1 53 850(-0.3/3h) -- -- -- --
03:00 -10.4 -22.3 -18.0 NNO 50.0 -- 79.6 53 850(0.1/3h) -- -- -- --
02:00 -10.4 -22 -15.8 NNO 46.3 -- 75.9 64 850(0.4/3h) -- -- -- --
01:00 -9.8 -21.3 -15.0 NNO 48.2 -- 79.6 66 850(-0.2/3h) -- -- -- --
00:00 -9.3 -20.5 -15.1 NNO 46.3 -- 87.0 63 850(-0.3/3h) -- -- -- --

1 Coordinated Universal Time. Actuellement il est 12:00 locale et 10:00 UTC.

2 Le vent souffle depuis la direction indiquée vers la direction oposée.

3 Les rafales max. sont disponible 40 min après l'heure du relevé.

4 Pour les stations d'altitude (plus de 600m) le géopotentiel du niveau le plus proche de la pression obligatoire est indiqué.

5 Les stations disposant d'un diffuseur peuvent indiquer "trace". Cela signifie que des précipitations ont touchés le sol mais que la quantité est inférieure à 0.1 mm.

Copyright

Les données affichées sur cette page sont la propriété exclusive de Météo Suisse.

Récapitulatif de la journée
Température [°C] Vent [km/h] Ensoleillement4 [h] Precipitations totale5 [mm] Pression [Hpa]
Min1 Max.2 Moy.3 Max. Min Max.
-10.9 -6.6 0 94.5 8 h 24 min 0 850.0 850.0

1 Température minimale relevée entre 18:00 UTC la veille et 18:00 UTC le jour donné.

2 Température maximale relevée entre 06:00 UTC le jour donné et 06:00 UTC le lendemain.

3 Vent moyen de la journée basé sur les relevés horaires.

4 Ensoleillement en heures relevé entre 06:00 UTC la veille et 06:00 UTC le jour donné.

5 Précipitations totales tombées entre 06:00 UTC la jour donné et 06:00 UTC le lendemain.

Graphiques horaires